sensor_id;sensor_type;location;lat;lon;timestamp;pressure;altitude;pressure_sealevel;temperature;humidity
53526;BME280;40551;50.478;19.378;2022-09-09T00:02:01;97553.53;;;17.57;83.93
53526;BME280;40551;50.478;19.378;2022-09-09T00:04:35;97555.38;;;17.56;83.90
53526;BME280;40551;50.478;19.378;2022-09-09T00:07:15;97556.80;;;17.56;83.89
53526;BME280;40551;50.478;19.378;2022-09-09T00:09:58;97555.44;;;17.52;83.73
53526;BME280;40551;50.478;19.378;2022-09-09T00:12:38;97556.85;;;17.51;83.90
53526;BME280;40551;50.478;19.378;2022-09-09T00:15:17;97558.08;;;17.49;83.76
53526;BME280;40551;50.478;19.378;2022-09-09T00:17:56;97553.58;;;17.49;83.76
53526;BME280;40551;50.478;19.378;2022-09-09T00:20:32;97552.82;;;17.46;83.73
53526;BME280;40551;50.478;19.378;2022-09-09T00:23:14;97553.65;;;17.44;83.57
53526;BME280;40551;50.478;19.378;2022-09-09T00:25:56;97553.56;;;17.40;83.60
53526;BME280;40551;50.478;19.378;2022-09-09T00:28:33;97559.30;;;17.35;83.70
53526;BME280;40551;50.478;19.378;2022-09-09T00:31:13;97563.76;;;17.28;83.63
53526;BME280;40551;50.478;19.378;2022-09-09T00:33:49;97567.33;;;17.23;83.63
53526;BME280;40551;50.478;19.378;2022-09-09T00:36:23;97567.31;;;17.19;83.67
53526;BME280;40551;50.478;19.378;2022-09-09T00:38:59;97570.14;;;17.18;83.48
53526;BME280;40551;50.478;19.378;2022-09-09T00:41:41;97572.15;;;17.14;83.52
53526;BME280;40551;50.478;19.378;2022-09-09T00:44:25;97569.84;;;17.10;83.50
53526;BME280;40551;50.478;19.378;2022-09-09T00:47:07;97566.45;;;17.06;83.49
53526;BME280;40551;50.478;19.378;2022-09-09T00:49:50;97572.52;;;17.02;83.43
53526;BME280;40551;50.478;19.378;2022-09-09T00:52:38;97575.88;;;16.98;83.26
53526;BME280;40551;50.478;19.378;2022-09-09T00:55:17;97575.70;;;16.93;83.37
53526;BME280;40551;50.478;19.378;2022-09-09T00:57:53;97579.11;;;16.89;83.43
53526;BME280;40551;50.478;19.378;2022-09-09T01:00:29;97580.30;;;16.87;83.34
53526;BME280;40551;50.478;19.378;2022-09-09T01:03:20;97579.91;;;16.86;83.44
53526;BME280;40551;50.478;19.378;2022-09-09T01:06:02;97583.34;;;16.82;83.30
53526;BME280;40551;50.478;19.378;2022-09-09T01:08:43;97587.01;;;16.81;83.41
53526;BME280;40551;50.478;19.378;2022-09-09T01:11:24;97593.65;;;16.79;83.23
53526;BME280;40551;50.478;19.378;2022-09-09T01:14:05;97598.20;;;16.76;83.32
53526;BME280;40551;50.478;19.378;2022-09-09T01:16:42;97601.91;;;16.74;83.17
53526;BME280;40551;50.478;19.378;2022-09-09T01:19:20;97601.81;;;16.72;83.41
53526;BME280;40551;50.478;19.378;2022-09-09T01:22:01;97602.48;;;16.71;83.32
53526;BME280;40551;50.478;19.378;2022-09-09T01:24:40;97605.64;;;16.69;83.39
53526;BME280;40551;50.478;19.378;2022-09-09T01:27:21;97607.63;;;16.69;83.27
53526;BME280;40551;50.478;19.378;2022-09-09T01:29:53;97607.86;;;16.67;83.12
53526;BME280;40551;50.478;19.378;2022-09-09T01:32:43;97610.27;;;16.65;83.29
53526;BME280;40551;50.478;19.378;2022-09-09T01:35:31;97613.66;;;16.65;83.07
53526;BME280;40551;50.478;19.378;2022-09-09T01:38:05;97615.38;;;16.63;83.10
53526;BME280;40551;50.478;19.378;2022-09-09T01:40:39;97616.80;;;16.63;83.14
53526;BME280;40551;50.478;19.378;2022-09-09T01:43:11;97613.58;;;16.62;83.14
53526;BME280;40551;50.478;19.378;2022-09-09T01:45:43;97612.73;;;16.62;83.03
53526;BME280;40551;50.478;19.378;2022-09-09T01:48:18;97613.56;;;16.61;83.01
53526;BME280;40551;50.478;19.378;2022-09-09T01:50:58;97617.95;;;16.60;82.89
53526;BME280;40551;50.478;19.378;2022-09-09T01:53:29;97617.10;;;16.56;83.01
53526;BME280;40551;50.478;19.378;2022-09-09T01:56:11;97618.46;;;16.54;82.95
53526;BME280;40551;50.478;19.378;2022-09-09T01:58:56;97619.80;;;16.51;83.09
53526;BME280;40551;50.478;19.378;2022-09-09T02:01:38;97621.13;;;16.51;83.07
53526;BME280;40551;50.478;19.378;2022-09-09T02:04:25;97623.07;;;16.49;83.14
53526;BME280;40551;50.478;19.378;2022-09-09T02:07:00;97626.95;;;16.49;83.30
53526;BME280;40551;50.478;19.378;2022-09-09T02:09:31;97631.40;;;16.49;83.48
53526;BME280;40551;50.478;19.378;2022-09-09T02:12:08;97628.34;;;16.50;83.33
53526;BME280;40551;50.478;19.378;2022-09-09T02:14:52;97627.91;;;16.51;83.26
53526;BME280;40551;50.478;19.378;2022-09-09T02:17:30;97630.62;;;16.50;83.34
53526;BME280;40551;50.478;19.378;2022-09-09T02:20:14;97628.70;;;16.50;83.24
53526;BME280;40551;50.478;19.378;2022-09-09T02:22:51;97630.88;;;16.49;83.37
53526;BME280;40551;50.478;19.378;2022-09-09T02:25:27;97629.00;;;16.48;83.40
53526;BME280;40551;50.478;19.378;2022-09-09T02:28:06;97637.13;;;16.48;83.54
53526;BME280;40551;50.478;19.378;2022-09-09T02:30:41;97637.33;;;16.48;83.48
53526;BME280;40551;50.478;19.378;2022-09-09T02:33:17;97633.36;;;16.48;83.50
53526;BME280;40551;50.478;19.378;2022-09-09T02:35:51;97643.23;;;16.47;83.45
53526;BME280;40551;50.478;19.378;2022-09-09T02:38:32;97648.13;;;16.44;83.52
53526;BME280;40551;50.478;19.378;2022-09-09T02:41:11;97650.05;;;16.43;83.57
53526;BME280;40551;50.478;19.378;2022-09-09T02:43:43;97649.83;;;16.41;83.48
53526;BME280;40551;50.478;19.378;2022-09-09T02:46:27;97654.05;;;16.41;83.56
53526;BME280;40551;50.478;19.378;2022-09-09T02:49:08;97656.42;;;16.40;83.79
53526;BME280;40551;50.478;19.378;2022-09-09T02:51:49;97658.37;;;16.40;83.83
53526;BME280;40551;50.478;19.378;2022-09-09T02:54:30;97661.69;;;16.40;83.91
53526;BME280;40551;50.478;19.378;2022-09-09T02:57:08;97665.91;;;16.40;84.01
53526;BME280;40551;50.478;19.378;2022-09-09T02:59:42;97667.94;;;16.39;83.96
53526;BME280;40551;50.478;19.378;2022-09-09T03:02:14;97673.02;;;16.39;84.01
53526;BME280;40551;50.478;19.378;2022-09-09T03:04:48;97677.10;;;16.37;84.04
53526;BME280;40551;50.478;19.378;2022-09-09T03:07:22;97673.30;;;16.35;84.13
53526;BME280;40551;50.478;19.378;2022-09-09T03:09:54;97677.23;;;16.35;84.22
53526;BME280;40551;50.478;19.378;2022-09-09T03:12:28;97676.89;;;16.34;84.34
53526;BME280;40551;50.478;19.378;2022-09-09T03:14:59;97674.73;;;16.35;84.35
53526;BME280;40551;50.478;19.378;2022-09-09T03:17:31;97673.09;;;16.34;84.21
53526;BME280;40551;50.478;19.378;2022-09-09T03:20:03;97672.66;;;16.35;84.33
53526;BME280;40551;50.478;19.378;2022-09-09T03:22:36;97676.09;;;16.35;84.20
53526;BME280;40551;50.478;19.378;2022-09-09T03:25:09;97676.73;;;16.34;84.03
53526;BME280;40551;50.478;19.378;2022-09-09T03:27:40;97675.92;;;16.32;83.87
53526;BME280;40551;50.478;19.378;2022-09-09T03:30:14;97673.43;;;16.30;83.82
53526;BME280;40551;50.478;19.378;2022-09-09T03:32:46;97677.71;;;16.26;83.66
53526;BME280;40551;50.478;19.378;2022-09-09T03:35:18;97679.30;;;16.24;83.67
53526;BME280;40551;50.478;19.378;2022-09-09T03:37:50;97678.85;;;16.24;83.68
53526;BME280;40551;50.478;19.378;2022-09-09T03:40:21;97681.80;;;16.24;83.70
53526;BME280;40551;50.478;19.378;2022-09-09T03:42:53;97680.90;;;16.26;83.86
53526;BME280;40551;50.478;19.378;2022-09-09T03:45:25;97683.69;;;16.26;83.83
53526;BME280;40551;50.478;19.378;2022-09-09T03:47:56;97682.44;;;16.26;83.91
53526;BME280;40551;50.478;19.378;2022-09-09T03:50:28;97685.82;;;16.27;83.84
53526;BME280;40551;50.478;19.378;2022-09-09T03:53:00;97691.98;;;16.26;83.75
53526;BME280;40551;50.478;19.378;2022-09-09T03:55:31;97693.23;;;16.26;83.78
53526;BME280;40551;50.478;19.378;2022-09-09T03:58:03;97695.25;;;16.29;83.87
53526;BME280;40551;50.478;19.378;2022-09-09T04:00:35;97695.14;;;16.29;83.82
53526;BME280;40551;50.478;19.378;2022-09-09T04:03:06;97696.99;;;16.29;83.80
53526;BME280;40551;50.478;19.378;2022-09-09T04:05:40;97699.26;;;16.29;83.76
53526;BME280;40551;50.478;19.378;2022-09-09T04:08:13;97701.72;;;16.29;83.67
53526;BME280;40551;50.478;19.378;2022-09-09T04:10:48;97699.34;;;16.27;83.47
53526;BME280;40551;50.478;19.378;2022-09-09T04:13:20;97705.52;;;16.25;83.34
53526;BME280;40551;50.478;19.378;2022-09-09T04:15:54;97701.97;;;16.22;83.24
53526;BME280;40551;50.478;19.378;2022-09-09T04:18:26;97697.64;;;16.20;83.14
53526;BME280;40551;50.478;19.378;2022-09-09T04:20:58;97696.83;;;16.19;83.31
53526;BME280;40551;50.478;19.378;2022-09-09T04:23:30;97700.52;;;16.17;83.18
53526;BME280;40551;50.478;19.378;2022-09-09T04:26:04;97698.26;;;16.16;82.92
53526;BME280;40551;50.478;19.378;2022-09-09T04:28:37;97701.85;;;16.13;83.05
53526;BME280;40551;50.478;19.378;2022-09-09T04:31:16;97701.64;;;16.13;83.07
53526;BME280;40551;50.478;19.378;2022-09-09T04:33:50;97701.44;;;16.22;83.73
53526;BME280;40551;50.478;19.378;2022-09-09T04:36:22;97704.36;;;16.30;83.65
53526;BME280;40551;50.478;19.378;2022-09-09T04:38:57;97703.05;;;16.44;83.96
53526;BME280;40551;50.478;19.378;2022-09-09T04:41:29;97700.52;;;16.65;84.17
53526;BME280;40551;50.478;19.378;2022-09-09T04:44:02;97700.94;;;16.75;83.59
53526;BME280;40551;50.478;19.378;2022-09-09T04:46:35;97703.39;;;16.81;83.23
53526;BME280;40551;50.478;19.378;2022-09-09T04:49:07;97704.52;;;16.82;82.79
53526;BME280;40551;50.478;19.378;2022-09-09T04:51:45;97696.63;;;16.83;82.80
53526;BME280;40551;50.478;19.378;2022-09-09T04:54:17;97702.79;;;16.87;82.84
53526;BME280;40551;50.478;19.378;2022-09-09T04:56:51;97707.27;;;16.90;82.62
53526;BME280;40551;50.478;19.378;2022-09-09T04:59:22;97708.89;;;16.90;82.41
53526;BME280;40551;50.478;19.378;2022-09-09T05:01:56;97711.83;;;16.89;82.35
53526;BME280;40551;50.478;19.378;2022-09-09T05:04:28;97714.92;;;16.88;82.35
53526;BME280;40551;50.478;19.378;2022-09-09T05:06:59;97711.36;;;16.90;82.73
53526;BME280;40551;50.478;19.378;2022-09-09T05:09:31;97712.86;;;17.02;83.13
53526;BME280;40551;50.478;19.378;2022-09-09T05:12:03;97718.57;;;17.24;83.53
53526;BME280;40551;50.478;19.378;2022-09-09T05:14:38;97720.11;;;17.49;83.76
53526;BME280;40551;50.478;19.378;2022-09-09T05:17:11;97727.64;;;18.05;84.97
53526;BME280;40551;50.478;19.378;2022-09-09T05:19:43;97721.75;;;18.98;85.76
53526;BME280;40551;50.478;19.378;2022-09-09T05:22:19;97724.73;;;19.91;84.80
53526;BME280;40551;50.478;19.378;2022-09-09T05:24:51;97729.77;;;20.55;81.49
53526;BME280;40551;50.478;19.378;2022-09-09T05:27:23;97729.25;;;21.18;80.46
53526;BME280;40551;50.478;19.378;2022-09-09T05:29:58;97728.79;;;21.70;78.62
53526;BME280;40551;50.478;19.378;2022-09-09T05:32:30;97735.83;;;22.10;76.18
53526;BME280;40551;50.478;19.378;2022-09-09T05:35:05;97734.64;;;22.38;74.54
53526;BME280;40551;50.478;19.378;2022-09-09T05:37:37;97733.02;;;22.95;74.39
53526;BME280;40551;50.478;19.378;2022-09-09T05:40:11;97734.85;;;23.82;73.93
53526;BME280;40551;50.478;19.378;2022-09-09T05:42:43;97740.23;;;24.40;71.49
53526;BME280;40551;50.478;19.378;2022-09-09T05:45:15;97742.92;;;24.72;69.02
53526;BME280;40551;50.478;19.378;2022-09-09T05:47:52;97737.99;;;25.17;67.75
53526;BME280;40551;50.478;19.378;2022-09-09T05:50:25;97742.77;;;25.75;66.55
53526;BME280;40551;50.478;19.378;2022-09-09T05:53:01;97749.02;;;26.55;65.85
53526;BME280;40551;50.478;19.378;2022-09-09T05:55:34;97746.41;;;27.29;63.93
53526;BME280;40551;50.478;19.378;2022-09-09T05:58:06;97744.56;;;27.77;61.71
53526;BME280;40551;50.478;19.378;2022-09-09T06:00:37;97750.23;;;28.13;60.15
53526;BME280;40551;50.478;19.378;2022-09-09T06:03:10;97750.50;;;28.64;58.33
53526;BME280;40551;50.478;19.378;2022-09-09T06:05:42;97748.42;;;28.84;56.52
53526;BME280;40551;50.478;19.378;2022-09-09T06:08:14;97749.35;;;29.06;55.81
53526;BME280;40551;50.478;19.378;2022-09-09T06:10:46;97752.81;;;29.23;54.59
53526;BME280;40551;50.478;19.378;2022-09-09T06:13:18;97749.13;;;29.62;53.73
53526;BME280;40551;50.478;19.378;2022-09-09T06:15:52;97751.08;;;30.03;52.81
53526;BME280;40551;50.478;19.378;2022-09-09T06:18:25;97753.91;;;30.16;50.42
53526;BME280;40551;50.478;19.378;2022-09-09T06:20:58;97756.77;;;30.35;50.39
53526;BME280;40551;50.478;19.378;2022-09-09T06:23:31;97759.64;;;30.49;49.40
53526;BME280;40551;50.478;19.378;2022-09-09T06:26:08;97761.27;;;30.58;48.66
53526;BME280;40551;50.478;19.378;2022-09-09T06:28:41;97762.48;;;30.82;47.82
53526;BME280;40551;50.478;19.378;2022-09-09T06:31:15;97764.55;;;31.20;47.68
53526;BME280;40551;50.478;19.378;2022-09-09T06:33:47;97766.92;;;31.41;46.17
53526;BME280;40551;50.478;19.378;2022-09-09T06:36:20;97756.69;;;31.51;45.58
53526;BME280;40551;50.478;19.378;2022-09-09T06:38:52;97756.95;;;31.71;45.46
53526;BME280;40551;50.478;19.378;2022-09-09T06:41:26;97758.67;;;32.00;45.01
53526;BME280;40551;50.478;19.378;2022-09-09T06:43:58;97758.20;;;32.36;44.54
53526;BME280;40551;50.478;19.378;2022-09-09T06:46:36;97758.19;;;32.61;43.45
53526;BME280;40551;50.478;19.378;2022-09-09T06:49:08;97759.31;;;32.91;43.27
53526;BME280;40551;50.478;19.378;2022-09-09T06:51:40;97761.59;;;33.04;42.31
53526;BME280;40551;50.478;19.378;2022-09-09T06:54:14;97758.31;;;33.25;41.96
53526;BME280;40551;50.478;19.378;2022-09-09T06:56:47;97764.30;;;33.59;42.00
53526;BME280;40551;50.478;19.378;2022-09-09T07:00:05;97757.48;;;34.01;40.52
53526;BME280;40551;50.478;19.378;2022-09-09T07:02:37;97765.28;;;34.04;39.86
53526;BME280;40551;50.478;19.378;2022-09-09T07:05:10;97768.21;;;33.98;39.39
53526;BME280;40551;50.478;19.378;2022-09-09T07:07:43;97769.23;;;33.99;39.11
53526;BME280;40551;50.478;19.378;2022-09-09T07:10:15;97767.30;;;33.96;38.78
53526;BME280;40551;50.478;19.378;2022-09-09T07:12:51;97767.79;;;33.80;38.90
53526;BME280;40551;50.478;19.378;2022-09-09T07:15:24;97770.73;;;33.42;38.44
53526;BME280;40551;50.478;19.378;2022-09-09T07:18:02;97769.70;;;32.76;38.09
53526;BME280;40551;50.478;19.378;2022-09-09T07:20:34;97770.62;;;31.84;38.45
53526;BME280;40551;50.478;19.378;2022-09-09T07:23:06;97766.24;;;31.02;39.57
53526;BME280;40551;50.478;19.378;2022-09-09T07:25:37;97762.45;;;30.33;40.54
53526;BME280;40551;50.478;19.378;2022-09-09T07:28:09;97757.05;;;29.72;41.45
53526;BME280;40551;50.478;19.378;2022-09-09T07:30:40;97755.23;;;29.00;41.85
53526;BME280;40551;50.478;19.378;2022-09-09T07:33:13;97760.39;;;28.26;43.28
53526;BME280;40551;50.478;19.378;2022-09-09T07:35:44;97763.89;;;27.59;44.28
53526;BME280;40551;50.478;19.378;2022-09-09T07:38:16;97762.44;;;27.04;45.42
53526;BME280;40551;50.478;19.378;2022-09-09T07:40:47;97756.84;;;26.60;46.36
53526;BME280;40551;50.478;19.378;2022-09-09T07:43:19;97753.91;;;26.20;47.87
53526;BME280;40551;50.478;19.378;2022-09-09T07:46:00;97749.91;;;25.75;48.57
53526;BME280;40551;50.478;19.378;2022-09-09T07:48:33;97748.58;;;25.38;49.69
53526;BME280;40551;50.478;19.378;2022-09-09T07:51:11;97750.82;;;25.17;50.46
53526;BME280;40551;50.478;19.378;2022-09-09T07:53:46;97749.30;;;24.96;50.38
53526;BME280;40551;50.478;19.378;2022-09-09T07:56:19;97754.36;;;24.80;50.79
53526;BME280;40551;50.478;19.378;2022-09-09T07:58:53;97752.65;;;24.58;51.19
53526;BME280;40551;50.478;19.378;2022-09-09T08:01:27;97753.71;;;24.36;51.78
53526;BME280;40551;50.478;19.378;2022-09-09T08:04:01;97754.75;;;24.20;52.25
53526;BME280;40551;50.478;19.378;2022-09-09T08:06:36;97755.26;;;24.09;52.91
53526;BME280;40551;50.478;19.378;2022-09-09T08:09:09;97758.40;;;23.96;52.87
53526;BME280;40551;50.478;19.378;2022-09-09T08:11:41;97761.77;;;23.81;53.20
53526;BME280;40551;50.478;19.378;2022-09-09T08:14:14;97757.42;;;23.66;53.15
53526;BME280;40551;50.478;19.378;2022-09-09T08:16:47;97766.77;;;23.56;54.06
53526;BME280;40551;50.478;19.378;2022-09-09T08:19:21;97766.22;;;23.49;54.47
53526;BME280;40551;50.478;19.378;2022-09-09T08:21:55;97776.15;;;23.44;54.39
53526;BME280;40551;50.478;19.378;2022-09-09T08:24:27;97776.80;;;23.32;54.31
53526;BME280;40551;50.478;19.378;2022-09-09T08:26:59;97778.36;;;23.16;54.63
53526;BME280;40551;50.478;19.378;2022-09-09T08:29:31;97779.86;;;23.04;55.21
53526;BME280;40551;50.478;19.378;2022-09-09T08:32:05;97781.55;;;22.97;55.70
53526;BME280;40551;50.478;19.378;2022-09-09T08:34:36;97784.27;;;22.96;55.86
53526;BME280;40551;50.478;19.378;2022-09-09T08:37:12;97782.05;;;22.92;55.64
53526;BME280;40551;50.478;19.378;2022-09-09T08:39:44;97783.92;;;22.91;55.66
53526;BME280;40551;50.478;19.378;2022-09-09T08:42:36;97780.56;;;22.89;56.05
53526;BME280;40551;50.478;19.378;2022-09-09T08:45:27;97779.62;;;22.84;55.91
53526;BME280;40551;50.478;19.378;2022-09-09T08:48:20;97781.20;;;22.79;56.02
53526;BME280;40551;50.478;19.378;2022-09-09T08:50:52;97783.01;;;22.72;56.06
53526;BME280;40551;50.478;19.378;2022-09-09T08:53:33;97782.10;;;22.68;56.18
53526;BME280;40551;50.478;19.378;2022-09-09T08:56:12;97775.44;;;22.69;55.49
53526;BME280;40551;50.478;19.378;2022-09-09T08:58:49;97773.96;;;22.69;55.35
53526;BME280;40551;50.478;19.378;2022-09-09T09:01:42;97769.35;;;22.72;55.64
53526;BME280;40551;50.478;19.378;2022-09-09T09:04:41;97771.35;;;22.75;55.78
53526;BME280;40551;50.478;19.378;2022-09-09T09:07:25;97776.51;;;22.80;55.13
53526;BME280;40551;50.478;19.378;2022-09-09T09:10:08;97777.61;;;22.72;54.66
53526;BME280;40551;50.478;19.378;2022-09-09T09:13:02;97774.19;;;22.68;55.34
53526;BME280;40551;50.478;19.378;2022-09-09T09:15:37;97774.23;;;22.66;55.16
53526;BME280;40551;50.478;19.378;2022-09-09T09:18:12;97771.52;;;22.64;55.20
53526;BME280;40551;50.478;19.378;2022-09-09T09:20:53;97771.60;;;22.63;55.24
53526;BME280;40551;50.478;19.378;2022-09-09T09:23:29;97766.90;;;22.65;55.41
53526;BME280;40551;50.478;19.378;2022-09-09T09:26:10;97770.01;;;22.70;55.45
53526;BME280;40551;50.478;19.378;2022-09-09T09:28:43;97771.98;;;22.78;55.45
53526;BME280;40551;50.478;19.378;2022-09-09T09:31:19;97774.27;;;22.93;55.65
53526;BME280;40551;50.478;19.378;2022-09-09T09:33:52;97775.53;;;23.03;55.13
53526;BME280;40551;50.478;19.378;2022-09-09T09:36:38;97779.09;;;23.08;55.01
53526;BME280;40551;50.478;19.378;2022-09-09T09:39:23;97782.92;;;23.10;54.23
53526;BME280;40551;50.478;19.378;2022-09-09T09:42:17;97788.02;;;23.10;54.13
53526;BME280;40551;50.478;19.378;2022-09-09T09:44:53;97787.48;;;23.12;55.23
53526;BME280;40551;50.478;19.378;2022-09-09T09:47:25;97780.66;;;23.11;54.52
53526;BME280;40551;50.478;19.378;2022-09-09T09:50:21;97787.27;;;23.13;53.98
53526;BME280;40551;50.478;19.378;2022-09-09T09:52:59;97784.58;;;23.12;53.79
53526;BME280;40551;50.478;19.378;2022-09-09T09:55:33;97781.25;;;23.14;53.85
53526;BME280;40551;50.478;19.378;2022-09-09T09:58:14;97782.91;;;23.20;54.56
53526;BME280;40551;50.478;19.378;2022-09-09T10:00:52;97784.27;;;23.28;54.65
53526;BME280;40551;50.478;19.378;2022-09-09T10:03:28;97781.66;;;23.31;53.94
53526;BME280;40551;50.478;19.378;2022-09-09T10:06:01;97784.45;;;23.31;54.35
53526;BME280;40551;50.478;19.378;2022-09-09T10:08:44;97787.06;;;23.39;55.03
53526;BME280;40551;50.478;19.378;2022-09-09T10:11:29;97787.70;;;23.50;54.99
53526;BME280;40551;50.478;19.378;2022-09-09T10:14:08;97785.29;;;23.54;53.85
53526;BME280;40551;50.478;19.378;2022-09-09T10:16:54;97781.04;;;23.62;53.68
53526;BME280;40551;50.478;19.378;2022-09-09T10:19:33;97781.90;;;23.71;53.78
53526;BME280;40551;50.478;19.378;2022-09-09T10:22:18;97777.78;;;23.79;53.57
53526;BME280;40551;50.478;19.378;2022-09-09T10:25:23;97777.31;;;23.79;52.68
53526;BME280;40551;50.478;19.378;2022-09-09T10:28:15;97783.47;;;23.78;53.31
53526;BME280;40551;50.478;19.378;2022-09-09T10:31:01;97783.58;;;23.71;53.46
53526;BME280;40551;50.478;19.378;2022-09-09T10:33:47;97786.23;;;23.66;54.02
53526;BME280;40551;50.478;19.378;2022-09-09T10:36:23;97786.08;;;23.65;54.25
53526;BME280;40551;50.478;19.378;2022-09-09T10:39:00;97784.61;;;23.70;53.77
53526;BME280;40551;50.478;19.378;2022-09-09T10:41:44;97783.06;;;23.74;53.10
53526;BME280;40551;50.478;19.378;2022-09-09T10:44:36;97787.16;;;23.74;52.80
53526;BME280;40551;50.478;19.378;2022-09-09T10:47:22;97793.06;;;23.76;52.19
53526;BME280;40551;50.478;19.378;2022-09-09T10:50:21;97796.40;;;23.74;52.15
53526;BME280;40551;50.478;19.378;2022-09-09T10:53:14;97799.73;;;23.70;51.85
53526;BME280;40551;50.478;19.378;2022-09-09T10:55:53;97801.75;;;23.73;51.64
53526;BME280;40551;50.478;19.378;2022-09-09T10:58:32;97800.65;;;23.74;52.14
53526;BME280;40551;50.478;19.378;2022-09-09T11:01:12;97803.11;;;23.76;51.33
53526;BME280;40551;50.478;19.378;2022-09-09T11:03:51;97800.45;;;23.80;51.22
53526;BME280;40551;50.478;19.378;2022-09-09T11:06:31;97803.23;;;23.84;51.65
53526;BME280;40551;50.478;19.378;2022-09-09T11:09:04;97799.02;;;23.90;51.32
53526;BME280;40551;50.478;19.378;2022-09-09T11:11:41;97799.11;;;23.94;50.67
53526;BME280;40551;50.478;19.378;2022-09-09T11:14:21;97798.33;;;23.90;50.81
53526;BME280;40551;50.478;19.378;2022-09-09T11:16:58;97796.12;;;23.87;51.14
53526;BME280;40551;50.478;19.378;2022-09-09T11:19:35;97797.68;;;23.87;50.60
53526;BME280;40551;50.478;19.378;2022-09-09T11:22:14;97795.88;;;23.87;50.76
53526;BME280;40551;50.478;19.378;2022-09-09T11:24:50;97800.27;;;23.89;50.67
53526;BME280;40551;50.478;19.378;2022-09-09T11:27:27;97807.11;;;24.01;50.43
53526;BME280;40551;50.478;19.378;2022-09-09T11:30:19;97807.36;;;24.09;50.27
53526;BME280;40551;50.478;19.378;2022-09-09T11:33:41;97802.58;;;24.19;49.64
53526;BME280;40551;50.478;19.378;2022-09-09T11:36:37;97803.67;;;24.26;49.66
53526;BME280;40551;50.478;19.378;2022-09-09T11:39:41;97803.10;;;24.32;49.36
53526;BME280;40551;50.478;19.378;2022-09-09T11:42:20;97801.03;;;24.24;48.73
53526;BME280;40551;50.478;19.378;2022-09-09T11:44:52;97800.45;;;24.05;48.39
53526;BME280;40551;50.478;19.378;2022-09-09T11:47:27;97801.87;;;23.88;49.03
53526;BME280;40551;50.478;19.378;2022-09-09T11:50:26;97803.72;;;23.80;49.80
53526;BME280;40551;50.478;19.378;2022-09-09T11:53:19;97806.24;;;23.92;49.73
53526;BME280;40551;50.478;19.378;2022-09-09T11:56:08;97803.50;;;24.00;49.29
53526;BME280;40551;50.478;19.378;2022-09-09T11:58:43;97801.84;;;24.11;49.38
53526;BME280;40551;50.478;19.378;2022-09-09T12:01:35;97794.09;;;24.21;48.97
53526;BME280;40551;50.478;19.378;2022-09-09T12:04:34;97789.78;;;24.28;48.29
53526;BME280;40551;50.478;19.378;2022-09-09T12:07:25;97788.80;;;24.27;48.27
53526;BME280;40551;50.478;19.378;2022-09-09T12:10:03;97793.58;;;24.22;48.69
53526;BME280;40551;50.478;19.378;2022-09-09T12:12:36;97793.13;;;24.10;48.73
53526;BME280;40551;50.478;19.378;2022-09-09T12:15:33;97796.04;;;24.02;49.09
53526;BME280;40551;50.478;19.378;2022-09-09T12:18:14;97795.09;;;23.98;49.42
53526;BME280;40551;50.478;19.378;2022-09-09T12:20:50;97795.19;;;24.05;49.90
53526;BME280;40551;50.478;19.378;2022-09-09T12:23:31;97796.83;;;24.03;49.50
53526;BME280;40551;50.478;19.378;2022-09-09T12:26:20;97795.02;;;24.09;49.31
53526;BME280;40551;50.478;19.378;2022-09-09T12:29:01;97797.33;;;24.06;48.65
53526;BME280;40551;50.478;19.378;2022-09-09T12:31:41;97794.86;;;23.94;48.56
53526;BME280;40551;50.478;19.378;2022-09-09T12:34:19;97796.84;;;23.85;48.58
53526;BME280;40551;50.478;19.378;2022-09-09T12:36:58;97795.27;;;23.79;49.18
53526;BME280;40551;50.478;19.378;2022-09-09T12:39:37;97796.83;;;23.74;49.91
53526;BME280;40551;50.478;19.378;2022-09-09T12:42:19;97793.77;;;23.68;50.40
53526;BME280;40551;50.478;19.378;2022-09-09T12:44:56;97791.64;;;23.64;51.24
53526;BME280;40551;50.478;19.378;2022-09-09T12:47:40;97791.65;;;23.62;51.79
53526;BME280;40551;50.478;19.378;2022-09-09T12:50:19;97789.26;;;23.57;51.94
53526;BME280;40551;50.478;19.378;2022-09-09T12:52:53;97795.08;;;23.52;51.86
53526;BME280;40551;50.478;19.378;2022-09-09T12:55:30;97796.85;;;23.46;52.36
53526;BME280;40551;50.478;19.378;2022-09-09T12:58:05;97791.95;;;23.45;52.12
53526;BME280;40551;50.478;19.378;2022-09-09T13:00:37;97785.17;;;23.47;51.68
53526;BME280;40551;50.478;19.378;2022-09-09T13:03:21;97786.03;;;23.57;50.46
53526;BME280;40551;50.478;19.378;2022-09-09T13:05:57;97787.34;;;23.66;50.45
53526;BME280;40551;50.478;19.378;2022-09-09T13:08:30;97788.87;;;23.74;49.59
53526;BME280;40551;50.478;19.378;2022-09-09T13:11:06;97787.88;;;23.80;49.45
53526;BME280;40551;50.478;19.378;2022-09-09T13:13:41;97785.20;;;23.87;49.94
53526;BME280;40551;50.478;19.378;2022-09-09T13:16:27;97785.61;;;23.86;49.20
53526;BME280;40551;50.478;19.378;2022-09-09T13:19:07;97784.52;;;23.80;48.53
53526;BME280;40551;50.478;19.378;2022-09-09T13:21:40;97783.95;;;23.75;48.27
53526;BME280;40551;50.478;19.378;2022-09-09T13:24:27;97783.14;;;23.75;48.45
53526;BME280;40551;50.478;19.378;2022-09-09T13:27:01;97777.42;;;23.75;49.24
53526;BME280;40551;50.478;19.378;2022-09-09T13:29:33;97783.45;;;23.71;49.37
53526;BME280;40551;50.478;19.378;2022-09-09T13:32:18;97785.90;;;23.62;49.19
53526;BME280;40551;50.478;19.378;2022-09-09T13:34:54;97783.42;;;23.53;49.57
53526;BME280;40551;50.478;19.378;2022-09-09T13:37:29;97779.25;;;23.44;49.20
53526;BME280;40551;50.478;19.378;2022-09-09T13:40:02;97772.55;;;23.44;49.98
53526;BME280;40551;50.478;19.378;2022-09-09T13:42:39;97767.33;;;23.44;49.07
53526;BME280;40551;50.478;19.378;2022-09-09T13:45:21;97765.48;;;23.45;49.23